Yeoward Addition, Illinois
Current Conditions -  °F | °C
As of 2:15 PM on Saturday 20 Dec 2014 (Local Time) from KSQI Reporting Station
Overcast Overcast  
Wind Chill: 30°   Ceiling: 3300
Heat Index: 34°   Visibility: 8mi
Dew Point: 25°   Wind: 5mph
Humidity: 70%   Direction: 170°S
Pressure: 30.22"   Gusts: NA
Location:  41.7267°N, 89.7066°W
Report Text: KSQI 202015Z 17004KT 8SM OVC033 01/M04 A3022 RMK AO1
Loading
Personal Weather Stations






























Interactive Weather Map New forecast layout! Learn more

10-Day Weather Forecast

Advertisements
Track Severe Weather on mobile